sensor_id;sensor_type;location;lat;lon;timestamp;pressure;altitude;pressure_sealevel;temperature;humidity
80198;BME280;69517;52.030;7.106;2023-09-08T00:02:05;100952.75;;;23.80;93.53
80198;BME280;69517;52.030;7.106;2023-09-08T00:04:31;100958.25;;;23.77;93.76
80198;BME280;69517;52.030;7.106;2023-09-08T00:06:58;100950.44;;;23.75;93.54
80198;BME280;69517;52.030;7.106;2023-09-08T00:09:25;100947.81;;;23.75;93.65
80198;BME280;69517;52.030;7.106;2023-09-08T00:11:51;100951.19;;;23.77;93.37
80198;BME280;69517;52.030;7.106;2023-09-08T00:14:20;100947.91;;;23.74;93.70
80198;BME280;69517;52.030;7.106;2023-09-08T00:16:46;100944.72;;;23.81;93.61
80198;BME280;69517;52.030;7.106;2023-09-08T00:19:13;100944.97;;;23.78;93.57
80198;BME280;69517;52.030;7.106;2023-09-08T00:21:39;100943.97;;;23.79;93.67
80198;BME280;69517;52.030;7.106;2023-09-08T00:24:08;100946.84;;;23.76;93.84
80198;BME280;69517;52.030;7.106;2023-09-08T00:26:35;100937.03;;;23.78;93.24
80198;BME280;69517;52.030;7.106;2023-09-08T00:29:01;100944.13;;;23.78;93.56
80198;BME280;69517;52.030;7.106;2023-09-08T00:31:29;100934.50;;;23.77;93.76
80198;BME280;69517;52.030;7.106;2023-09-08T00:33:55;100938.94;;;23.76;93.68
80198;BME280;69517;52.030;7.106;2023-09-08T00:36:21;100940.84;;;23.74;93.66
80198;BME280;69517;52.030;7.106;2023-09-08T00:38:48;100944.97;;;23.78;93.43
80198;BME280;69517;52.030;7.106;2023-09-08T00:41:14;100939.16;;;23.73;93.63
80198;BME280;69517;52.030;7.106;2023-09-08T00:43:40;100935.56;;;23.74;93.83
80198;BME280;69517;52.030;7.106;2023-09-08T00:46:06;100937.25;;;23.75;93.48
80198;BME280;69517;52.030;7.106;2023-09-08T00:48:35;100940.50;;;23.79;93.23
80198;BME280;69517;52.030;7.106;2023-09-08T00:51:02;100933.66;;;23.76;93.47
80198;BME280;69517;52.030;7.106;2023-09-08T00:53:30;100931.03;;;23.76;93.61
80198;BME280;69517;52.030;7.106;2023-09-08T00:55:57;100934.72;;;23.74;93.62
80198;BME280;69517;52.030;7.106;2023-09-08T00:58:24;100934.41;;;23.78;93.53
80198;BME280;69517;52.030;7.106;2023-09-08T01:00:51;100926.22;;;23.70;93.85
80198;BME280;69517;52.030;7.106;2023-09-08T01:03:17;100929.44;;;23.74;93.84
80198;BME280;69517;52.030;7.106;2023-09-08T01:05:45;100932.22;;;23.72;93.87
80198;BME280;69517;52.030;7.106;2023-09-08T01:08:13;100940.94;;;23.73;93.68
80198;BME280;69517;52.030;7.106;2023-09-08T01:10:40;100945.16;;;23.75;93.71
80198;BME280;69517;52.030;7.106;2023-09-08T01:13:07;100948.06;;;23.72;93.72
80198;BME280;69517;52.030;7.106;2023-09-08T01:15:33;100945.28;;;23.74;94.01
80198;BME280;69517;52.030;7.106;2023-09-08T01:18:00;100945.91;;;23.77;93.64
80198;BME280;69517;52.030;7.106;2023-09-08T01:20:27;100947.91;;;23.74;93.60
80198;BME280;69517;52.030;7.106;2023-09-08T01:22:59;100945.06;;;23.77;93.38
80198;BME280;69517;52.030;7.106;2023-09-08T01:25:28;100941.09;;;23.71;93.82
80198;BME280;69517;52.030;7.106;2023-09-08T01:27:57;100947.22;;;23.72;93.75
80198;BME280;69517;52.030;7.106;2023-09-08T01:30:25;100940.25;;;23.71;94.01
80198;BME280;69517;52.030;7.106;2023-09-08T01:32:52;100941.78;;;23.73;93.71
80198;BME280;69517;52.030;7.106;2023-09-08T01:35:19;100940.84;;;23.74;93.85
80198;BME280;69517;52.030;7.106;2023-09-08T01:37:46;100936.41;;;23.75;93.63
80198;BME280;69517;52.030;7.106;2023-09-08T01:40:13;100936.53;;;23.73;93.75
80198;BME280;69517;52.030;7.106;2023-09-08T01:42:41;100940.13;;;23.72;94.05
80198;BME280;69517;52.030;7.106;2023-09-08T01:45:08;100935.06;;;23.69;94.12
80198;BME280;69517;52.030;7.106;2023-09-08T01:47:34;100928.22;;;23.67;93.94
80198;BME280;69517;52.030;7.106;2023-09-08T01:50:01;100928.59;;;23.73;93.87
80198;BME280;69517;52.030;7.106;2023-09-08T01:52:27;100916.59;;;23.69;93.86
80198;BME280;69517;52.030;7.106;2023-09-08T01:54:53;100924.41;;;23.71;93.90
80198;BME280;69517;52.030;7.106;2023-09-08T01:57:20;100922.84;;;23.68;94.01
80198;BME280;69517;52.030;7.106;2023-09-08T01:59:47;100916.59;;;23.69;93.72
80198;BME280;69517;52.030;7.106;2023-09-08T02:02:14;100919.97;;;23.71;93.79
80198;BME280;69517;52.030;7.106;2023-09-08T02:04:40;100918.78;;;23.75;93.89
80198;BME280;69517;52.030;7.106;2023-09-08T02:07:06;100918.41;;;23.69;93.71
80198;BME280;69517;52.030;7.106;2023-09-08T02:09:33;100923.56;;;23.70;93.64
80198;BME280;69517;52.030;7.106;2023-09-08T02:11:59;100914.44;;;23.74;93.48
80198;BME280;69517;52.030;7.106;2023-09-08T02:14:26;100915.41;;;23.73;93.73
80198;BME280;69517;52.030;7.106;2023-09-08T02:16:54;100926.94;;;23.72;93.60
80198;BME280;69517;52.030;7.106;2023-09-08T02:19:20;100913.75;;;23.72;93.75
80198;BME280;69517;52.030;7.106;2023-09-08T02:21:46;100921.66;;;23.72;93.47
80198;BME280;69517;52.030;7.106;2023-09-08T02:24:12;100921.66;;;23.72;93.98
80198;BME280;69517;52.030;7.106;2023-09-08T02:26:39;100914.69;;;23.71;93.80
80198;BME280;69517;52.030;7.106;2023-09-08T02:29:05;100919.97;;;23.71;93.67
80198;BME280;69517;52.030;7.106;2023-09-08T02:31:32;100912.28;;;23.68;93.70
80198;BME280;69517;52.030;7.106;2023-09-08T02:34:00;100920.94;;;23.70;93.63
80198;BME280;69517;52.030;7.106;2023-09-08T02:36:26;100927.66;;;23.74;93.73
80198;BME280;69517;52.030;7.106;2023-09-08T02:38:52;100924.31;;;23.72;93.87
80198;BME280;69517;52.030;7.106;2023-09-08T02:41:19;100926.94;;;23.72;93.46
80198;BME280;69517;52.030;7.106;2023-09-08T02:43:45;100928.59;;;23.73;93.60
80198;BME280;69517;52.030;7.106;2023-09-08T02:46:11;100926.41;;;23.67;93.63
80198;BME280;69517;52.030;7.106;2023-09-08T02:48:38;100926.94;;;23.72;93.70
80198;BME280;69517;52.030;7.106;2023-09-08T02:51:06;100925.56;;;23.67;94.12
80198;BME280;69517;52.030;7.106;2023-09-08T02:53:32;100925.47;;;23.68;93.84
80198;BME280;69517;52.030;7.106;2023-09-08T02:55:59;100916.84;;;23.66;93.75
80198;BME280;69517;52.030;7.106;2023-09-08T02:58:26;100924.41;;;23.71;93.63
80198;BME280;69517;52.030;7.106;2023-09-08T03:00:52;100927.41;;;23.66;94.07
80198;BME280;69517;52.030;7.106;2023-09-08T03:03:19;100924.53;;;23.69;93.72
80198;BME280;69517;52.030;7.106;2023-09-08T03:05:45;100925.47;;;23.68;93.79
80198;BME280;69517;52.030;7.106;2023-09-08T03:08:13;100923.78;;;23.67;93.73
80198;BME280;69517;52.030;7.106;2023-09-08T03:10:39;100923.78;;;23.67;93.91
80198;BME280;69517;52.030;7.106;2023-09-08T03:13:06;100924.31;;;23.72;93.42
80198;BME280;69517;52.030;7.106;2023-09-08T03:15:33;100912.75;;;23.73;93.68
80198;BME280;69517;52.030;7.106;2023-09-08T03:18:00;100908.94;;;23.66;94.09
80198;BME280;69517;52.030;7.106;2023-09-08T03:20:26;100907.94;;;23.67;93.64
80198;BME280;69517;52.030;7.106;2023-09-08T03:22:53;100909.88;;;23.65;93.68
80198;BME280;69517;52.030;7.106;2023-09-08T03:25:21;100913.22;;;23.67;93.85
80198;BME280;69517;52.030;7.106;2023-09-08T03:27:47;100908.47;;;23.72;93.66
80198;BME280;69517;52.030;7.106;2023-09-08T03:30:13;100912.91;;;23.72;93.64
80198;BME280;69517;52.030;7.106;2023-09-08T03:32:39;100904.47;;;23.67;93.75
80198;BME280;69517;52.030;7.106;2023-09-08T03:35:06;100904.34;;;23.68;93.75
80198;BME280;69517;52.030;7.106;2023-09-08T03:37:33;100907.25;;;23.65;94.00
80198;BME280;69517;52.030;7.106;2023-09-08T03:39:59;100903.88;;;23.63;93.89
80198;BME280;69517;52.030;7.106;2023-09-08T03:42:27;100899.31;;;23.65;93.89
80198;BME280;69517;52.030;7.106;2023-09-08T03:44:53;100902.66;;;23.67;93.64
80198;BME280;69517;52.030;7.106;2023-09-08T03:47:20;100903.66;;;23.66;93.63
80198;BME280;69517;52.030;7.106;2023-09-08T03:49:46;100903.66;;;23.66;93.65
80198;BME280;69517;52.030;7.106;2023-09-08T03:52:12;100903.50;;;23.68;93.66
80198;BME280;69517;52.030;7.106;2023-09-08T03:54:38;100901.00;;;23.66;93.64
80198;BME280;69517;52.030;7.106;2023-09-08T03:57:04;100901.00;;;23.66;94.03
80198;BME280;69517;52.030;7.106;2023-09-08T03:59:32;100908.19;;;23.64;94.01
80198;BME280;69517;52.030;7.106;2023-09-08T04:01:58;100910.09;;;23.62;93.93
80198;BME280;69517;52.030;7.106;2023-09-08T04:04:26;100907.94;;;23.67;93.60
80198;BME280;69517;52.030;7.106;2023-09-08T04:06:52;100908.78;;;23.68;93.73
80198;BME280;69517;52.030;7.106;2023-09-08T04:09:18;100905.31;;;23.67;93.67
80198;BME280;69517;52.030;7.106;2023-09-08T04:11:44;100908.09;;;23.66;93.54
80198;BME280;69517;52.030;7.106;2023-09-08T04:14:11;100902.66;;;23.67;93.89
80198;BME280;69517;52.030;7.106;2023-09-08T04:16:38;100907.47;;;23.62;93.89
80198;BME280;69517;52.030;7.106;2023-09-08T04:19:04;100910.72;;;23.66;93.84
80198;BME280;69517;52.030;7.106;2023-09-08T04:21:31;100904.59;;;23.65;94.04
80198;BME280;69517;52.030;7.106;2023-09-08T04:23:57;100902.06;;;23.64;93.73
80198;BME280;69517;52.030;7.106;2023-09-08T04:26:23;100895.72;;;23.66;94.12
80198;BME280;69517;52.030;7.106;2023-09-08T04:28:50;100904.34;;;23.68;93.74
80198;BME280;69517;52.030;7.106;2023-09-08T04:31:16;100900.16;;;23.66;93.69
80198;BME280;69517;52.030;7.106;2023-09-08T04:33:44;100913.38;;;23.66;93.51
80198;BME280;69517;52.030;7.106;2023-09-08T04:36:10;100904.13;;;23.60;93.99
80198;BME280;69517;52.030;7.106;2023-09-08T04:38:38;100912.06;;;23.71;93.34
80198;BME280;69517;52.030;7.106;2023-09-08T04:41:05;100906.03;;;23.69;93.52
80198;BME280;69517;52.030;7.106;2023-09-08T04:43:32;100905.31;;;23.67;93.76
80198;BME280;69517;52.030;7.106;2023-09-08T04:45:58;100902.06;;;23.64;93.93
80198;BME280;69517;52.030;7.106;2023-09-08T04:48:24;100906.41;;;23.65;93.84
80198;BME280;69517;52.030;7.106;2023-09-08T04:50:52;100905.56;;;23.64;93.92
80198;BME280;69517;52.030;7.106;2023-09-08T04:53:18;100898.59;;;23.63;93.75
80198;BME280;69517;52.030;7.106;2023-09-08T04:55:44;100901.97;;;23.65;93.48
80198;BME280;69517;52.030;7.106;2023-09-08T04:58:10;100906.28;;;23.66;93.43
80198;BME280;69517;52.030;7.106;2023-09-08T05:00:37;100906.50;;;23.63;93.71
80198;BME280;69517;52.030;7.106;2023-09-08T05:03:04;100907.94;;;23.67;93.41
80198;BME280;69517;52.030;7.106;2023-09-08T05:05:30;100910.09;;;23.62;93.74
80198;BME280;69517;52.030;7.106;2023-09-08T05:07:58;100906.50;;;23.63;93.76
80198;BME280;69517;52.030;7.106;2023-09-08T05:10:24;100895.94;;;23.63;93.68
80198;BME280;69517;52.030;7.106;2023-09-08T05:12:51;100899.53;;;23.62;93.54
80198;BME280;69517;52.030;7.106;2023-09-08T05:15:17;100903.88;;;23.63;93.72
80198;BME280;69517;52.030;7.106;2023-09-08T05:17:46;100911.78;;;23.63;93.56
80198;BME280;69517;52.030;7.106;2023-09-08T05:20:12;100901.47;;;23.60;93.57
80198;BME280;69517;52.030;7.106;2023-09-08T05:22:38;100906.75;;;23.60;93.85
80198;BME280;69517;52.030;7.106;2023-09-08T05:25:06;100906.75;;;23.60;93.64
80198;BME280;69517;52.030;7.106;2023-09-08T05:27:32;100902.81;;;23.66;93.82
80198;BME280;69517;52.030;7.106;2023-09-08T05:29:59;100907.56;;;23.61;93.91
80198;BME280;69517;52.030;7.106;2023-09-08T05:32:25;100905.78;;;23.61;93.92
80198;BME280;69517;52.030;7.106;2023-09-08T05:34:51;100898.69;;;23.62;93.71
80198;BME280;69517;52.030;7.106;2023-09-08T05:37:17;100901.34;;;23.62;93.77
80198;BME280;69517;52.030;7.106;2023-09-08T05:39:43;100897.84;;;23.61;94.01
80198;BME280;69517;52.030;7.106;2023-09-08T05:42:11;100895.34;;;23.60;93.68
80198;BME280;69517;52.030;7.106;2023-09-08T05:44:37;100902.44;;;23.59;94.09
80198;BME280;69517;52.030;7.106;2023-09-08T05:47:04;100904.13;;;23.60;93.81
80198;BME280;69517;52.030;7.106;2023-09-08T05:49:30;100898.59;;;23.63;93.90
80198;BME280;69517;52.030;7.106;2023-09-08T05:51:57;100907.47;;;23.62;93.66
80198;BME280;69517;52.030;7.106;2023-09-08T05:54:23;100905.78;;;23.61;93.69
80198;BME280;69517;52.030;7.106;2023-09-08T05:56:49;100904.94;;;23.61;93.80
80198;BME280;69517;52.030;7.106;2023-09-08T05:59:17;100908.41;;;23.61;93.74
80198;BME280;69517;52.030;7.106;2023-09-08T06:01:43;100906.03;;;23.58;93.73
80198;BME280;69517;52.030;7.106;2023-09-08T06:04:09;100908.41;;;23.61;93.91
80198;BME280;69517;52.030;7.106;2023-09-08T06:06:36;100906.75;;;23.60;94.07
80198;BME280;69517;52.030;7.106;2023-09-08T06:09:02;100904.81;;;23.62;93.63
80198;BME280;69517;52.030;7.106;2023-09-08T06:11:31;100908.66;;;23.58;93.96
80198;BME280;69517;52.030;7.106;2023-09-08T06:13:57;100911.28;;;23.58;93.77
80198;BME280;69517;52.030;7.106;2023-09-08T06:16:26;100907.91;;;23.56;94.18
80198;BME280;69517;52.030;7.106;2023-09-08T06:18:52;100912.84;;;23.61;93.89
80198;BME280;69517;52.030;7.106;2023-09-08T06:21:18;100913.59;;;23.63;93.80
80198;BME280;69517;52.030;7.106;2023-09-08T06:23:45;100912.16;;;23.59;93.69
80198;BME280;69517;52.030;7.106;2023-09-08T06:26:11;100914.78;;;23.59;93.89
80198;BME280;69517;52.030;7.106;2023-09-08T06:28:38;100922.81;;;23.57;94.27
80198;BME280;69517;52.030;7.106;2023-09-08T06:31:06;100918.97;;;23.61;93.51
80198;BME280;69517;52.030;7.106;2023-09-08T06:33:34;100923.28;;;23.62;93.62
80198;BME280;69517;52.030;7.106;2023-09-08T06:36:01;100917.31;;;23.60;93.79
80198;BME280;69517;52.030;7.106;2023-09-08T06:38:27;100920.66;;;23.62;93.95
80198;BME280;69517;52.030;7.106;2023-09-08T06:40:56;100919.94;;;23.60;93.62
80198;BME280;69517;52.030;7.106;2023-09-08T06:43:22;100922.59;;;23.60;93.75
80198;BME280;69517;52.030;7.106;2023-09-08T06:45:48;100927.50;;;23.65;93.57
80198;BME280;69517;52.030;7.106;2023-09-08T06:48:15;100923.41;;;23.61;93.72
80198;BME280;69517;52.030;7.106;2023-09-08T06:50:42;100925.09;;;23.62;93.49
80198;BME280;69517;52.030;7.106;2023-09-08T06:53:09;100925.94;;;23.62;93.67
80198;BME280;69517;52.030;7.106;2023-09-08T06:55:37;100928.94;;;23.58;93.82
80198;BME280;69517;52.030;7.106;2023-09-08T06:58:04;100928.94;;;23.58;94.11
80198;BME280;69517;52.030;7.106;2023-09-08T07:00:30;100924.59;;;23.57;94.18
80198;BME280;69517;52.030;7.106;2023-09-08T07:02:56;100924.59;;;23.57;93.99
80198;BME280;69517;52.030;7.106;2023-09-08T07:05:22;100921.75;;;23.60;93.61
80198;BME280;69517;52.030;7.106;2023-09-08T07:07:50;100921.75;;;23.60;93.74
80198;BME280;69517;52.030;7.106;2023-09-08T07:10:17;100921.84;;;23.58;93.88
80198;BME280;69517;52.030;7.106;2023-09-08T07:12:43;100925.44;;;23.57;94.07
80198;BME280;69517;52.030;7.106;2023-09-08T07:15:09;100921.22;;;23.55;94.25
80198;BME280;69517;52.030;7.106;2023-09-08T07:17:36;100922.69;;;23.59;92.13
80198;BME280;69517;52.030;7.106;2023-09-08T07:20:02;100919.09;;;23.60;91.86
80198;BME280;69517;52.030;7.106;2023-09-08T07:22:29;100916.47;;;23.60;92.97
80198;BME280;69517;52.030;7.106;2023-09-08T07:24:56;100917.06;;;23.63;92.14
80198;BME280;69517;52.030;7.106;2023-09-08T07:27:22;100914.69;;;23.60;92.33
80198;BME280;69517;52.030;7.106;2023-09-08T07:29:49;100919.09;;;23.60;93.10
80198;BME280;69517;52.030;7.106;2023-09-08T07:32:15;100917.31;;;23.60;93.02
80198;BME280;69517;52.030;7.106;2023-09-08T07:34:42;100917.53;;;23.57;93.11
80198;BME280;69517;52.030;7.106;2023-09-08T07:37:08;100925.22;;;23.60;93.04
80198;BME280;69517;52.030;7.106;2023-09-08T07:39:34;100921.38;;;23.64;93.19
80198;BME280;69517;52.030;7.106;2023-09-08T07:42:02;100915.38;;;23.62;92.93
80198;BME280;69517;52.030;7.106;2023-09-08T07:44:28;100916.22;;;23.63;92.93
80198;BME280;69517;52.030;7.106;2023-09-08T07:46:54;100919.81;;;23.62;92.99
80198;BME280;69517;52.030;7.106;2023-09-08T07:49:21;100925.09;;;23.62;92.96
80198;BME280;69517;52.030;7.106;2023-09-08T07:51:48;100921.84;;;23.58;93.33
80198;BME280;69517;52.030;7.106;2023-09-08T07:54:14;100926.28;;;23.58;93.25
80198;BME280;69517;52.030;7.106;2023-09-08T07:56:40;100921.84;;;23.58;93.31
80198;BME280;69517;52.030;7.106;2023-09-08T07:59:08;100918.25;;;23.59;93.10
80198;BME280;69517;52.030;7.106;2023-09-08T08:01:34;100918.00;;;23.62;93.44
80198;BME280;69517;52.030;7.106;2023-09-08T08:04:00;100913.69;;;23.61;93.46
80198;BME280;69517;52.030;7.106;2023-09-08T08:06:28;100918.97;;;23.61;93.46
80198;BME280;69517;52.030;7.106;2023-09-08T08:08:54;100913.94;;;23.58;93.35
80198;BME280;69517;52.030;7.106;2023-09-08T08:11:21;100917.53;;;23.57;93.57
80198;BME280;69517;52.030;7.106;2023-09-08T08:13:47;100910.94;;;23.63;93.39
80198;BME280;69517;52.030;7.106;2023-09-08T08:16:15;100911.06;;;23.61;93.19
80198;BME280;69517;52.030;7.106;2023-09-08T08:18:41;100915.72;;;23.58;93.73
80198;BME280;69517;52.030;7.106;2023-09-08T08:21:08;100909.59;;;23.57;93.60
80198;BME280;69517;52.030;7.106;2023-09-08T08:23:34;100912.84;;;23.61;93.63
80198;BME280;69517;52.030;7.106;2023-09-08T08:26:01;100913.69;;;23.61;93.31
80198;BME280;69517;52.030;7.106;2023-09-08T08:28:28;100920.66;;;23.62;93.41
80198;BME280;69517;52.030;7.106;2023-09-08T08:30:55;100918.97;;;23.61;93.67
80198;BME280;69517;52.030;7.106;2023-09-08T08:33:23;100918.13;;;23.61;93.41
80198;BME280;69517;52.030;7.106;2023-09-08T08:35:51;100919.59;;;23.65;93.19
80198;BME280;69517;52.030;7.106;2023-09-08T08:38:17;100920.44;;;23.65;92.25
80198;BME280;69517;52.030;7.106;2023-09-08T08:40:44;100922.59;;;23.60;93.29
80198;BME280;69517;52.030;7.106;2023-09-08T08:43:10;100918.97;;;23.61;92.77
80198;BME280;69517;52.030;7.106;2023-09-08T08:45:36;100924.75;;;23.66;92.63
80198;BME280;69517;52.030;7.106;2023-09-08T08:48:03;100923.91;;;23.66;92.07
80198;BME280;69517;52.030;7.106;2023-09-08T08:50:31;100920.75;;;23.61;92.65
80198;BME280;69517;52.030;7.106;2023-09-08T08:52:58;100912.53;;;23.65;92.29
80198;BME280;69517;52.030;7.106;2023-09-08T08:55:25;100914.69;;;23.60;92.03
80198;BME280;69517;52.030;7.106;2023-09-08T08:57:51;100914.22;;;23.66;91.56
80198;BME280;69517;52.030;7.106;2023-09-08T09:00:19;100913.94;;;23.58;92.23
80198;BME280;69517;52.030;7.106;2023-09-08T09:02:45;100913.47;;;23.64;92.08
80198;BME280;69517;52.030;7.106;2023-09-08T09:05:14;100913.69;;;23.61;92.29
80198;BME280;69517;52.030;7.106;2023-09-08T09:07:42;100913.19;;;23.56;92.26
80198;BME280;69517;52.030;7.106;2023-09-08T09:10:09;100910.81;;;23.53;92.06
80198;BME280;69517;52.030;7.106;2023-09-08T09:12:35;100909.72;;;23.56;91.83
80198;BME280;69517;52.030;7.106;2023-09-08T09:15:02;100912.34;;;23.56;92.00
80198;BME280;69517;52.030;7.106;2023-09-08T09:17:29;100910.09;;;23.62;92.22
80198;BME280;69517;52.030;7.106;2023-09-08T09:22:36;100912.97;;;23.59;92.12
80198;BME280;69517;52.030;7.106;2023-09-08T09:25:04;100914.69;;;23.60;91.72
80198;BME280;69517;52.030;7.106;2023-09-08T09:27:32;100920.16;;;23.57;92.52
80198;BME280;69517;52.030;7.106;2023-09-08T09:30:00;100916.56;;;23.58;92.51
80198;BME280;69517;52.030;7.106;2023-09-08T09:32:26;100916.56;;;23.58;92.24
80198;BME280;69517;52.030;7.106;2023-09-08T09:34:54;100920.66;;;23.62;92.19
80198;BME280;69517;52.030;7.106;2023-09-08T09:37:21;100920.66;;;23.62;92.09
80198;BME280;69517;52.030;7.106;2023-09-08T09:39:48;100913.47;;;23.64;92.01
80198;BME280;69517;52.030;7.106;2023-09-08T09:42:16;100914.91;;;23.68;91.59
80198;BME280;69517;52.030;7.106;2023-09-08T09:44:43;100919.25;;;23.69;91.51
80198;BME280;69517;52.030;7.106;2023-09-08T09:47:09;100915.88;;;23.67;91.62
80198;BME280;69517;52.030;7.106;2023-09-08T09:49:41;100912.06;;;23.71;91.53
80198;BME280;69517;52.030;7.106;2023-09-08T09:52:07;100918.28;;;23.70;91.42
80198;BME280;69517;52.030;7.106;2023-09-08T09:54:34;100909.63;;;23.68;91.53
80198;BME280;69517;52.030;7.106;2023-09-08T09:57:00;100911.56;;;23.66;91.57
80198;BME280;69517;52.030;7.106;2023-09-08T09:59:29;100915.28;;;23.64;92.00
80198;BME280;69517;52.030;7.106;2023-09-08T10:01:56;100908.09;;;23.66;92.05
80198;BME280;69517;52.030;7.106;2023-09-08T10:04:22;100915.53;;;23.72;91.88
80198;BME280;69517;52.030;7.106;2023-09-08T10:06:49;100909.41;;;23.71;91.79
80198;BME280;69517;52.030;7.106;2023-09-08T10:09:16;100910.00;;;23.75;91.74
80198;BME280;69517;52.030;7.106;2023-09-08T10:11:44;100912.53;;;23.76;92.09
80198;BME280;69517;52.030;7.106;2023-09-08T10:14:13;100906.31;;;23.77;91.92
80198;BME280;69517;52.030;7.106;2023-09-08T10:16:41;100909.44;;;23.82;91.93
80198;BME280;69517;52.030;7.106;2023-09-08T10:19:10;100910.00;;;23.75;92.40
80198;BME280;69517;52.030;7.106;2023-09-08T10:21:38;100905.19;;;23.69;92.51
80198;BME280;69517;52.030;7.106;2023-09-08T10:24:07;100908.56;;;23.71;92.50
80198;BME280;69517;52.030;7.106;2023-09-08T10:26:37;100913.75;;;23.72;92.21
80198;BME280;69517;52.030;7.106;2023-09-08T10:29:05;100901.50;;;23.71;92.09
80198;BME280;69517;52.030;7.106;2023-09-08T10:31:32;100901.00;;;23.66;92.54
80198;BME280;69517;52.030;7.106;2023-09-08T10:34:00;100897.28;;;23.69;91.93
80198;BME280;69517;52.030;7.106;2023-09-08T10:36:27;100900.41;;;23.74;91.77
80198;BME280;69517;52.030;7.106;2023-09-08T10:38:53;100901.50;;;23.71;91.64
80198;BME280;69517;52.030;7.106;2023-09-08T10:41:25;100901.25;;;23.74;91.75
80198;BME280;69517;52.030;7.106;2023-09-08T10:43:54;100902.19;;;23.73;92.07
80198;BME280;69517;52.030;7.106;2023-09-08T10:46:21;100896.81;;;23.75;91.80
80198;BME280;69517;52.030;7.106;2023-09-08T10:48:47;100898.59;;;23.74;91.73
80198;BME280;69517;52.030;7.106;2023-09-08T10:51:15;100893.31;;;23.74;91.95
80198;BME280;69517;52.030;7.106;2023-09-08T10:53:42;100903.03;;;23.74;91.86
80198;BME280;69517;52.030;7.106;2023-09-08T10:56:12;100900.28;;;23.75;91.70
80198;BME280;69517;52.030;7.106;2023-09-08T10:58:38;100903.88;;;23.74;92.06
80198;BME280;69517;52.030;7.106;2023-09-08T11:01:08;100901.72;;;23.79;91.65
80198;BME280;69517;52.030;7.106;2023-09-08T11:03:45;100908.69;;;23.80;91.64
80198;BME280;69517;52.030;7.106;2023-09-08T11:06:16;100907.00;;;23.79;92.00
80198;BME280;69517;52.030;7.106;2023-09-08T11:08:44;100907.63;;;23.72;92.45
80198;BME280;69517;52.030;7.106;2023-09-08T11:11:11;100900.66;;;23.71;92.69
80198;BME280;69517;52.030;7.106;2023-09-08T11:13:37;100901.34;;;23.73;91.99
80198;BME280;69517;52.030;7.106;2023-09-08T11:16:04;100908.22;;;23.86;91.59
80198;BME280;69517;52.030;7.106;2023-09-08T11:18:31;100899.81;;;23.81;92.02
80198;BME280;69517;52.030;7.106;2023-09-08T11:20:59;100891.16;;;23.79;91.88
80198;BME280;69517;52.030;7.106;2023-09-08T11:23:28;100896.34;;;23.81;91.50
80198;BME280;69517;52.030;7.106;2023-09-08T11:25:55;100898.38;;;23.77;91.53
80198;BME280;69517;52.030;7.106;2023-09-08T11:28:21;100891.91;;;23.81;91.33
80198;BME280;69517;52.030;7.106;2023-09-08T11:30:48;100893.59;;;23.82;91.50
80198;BME280;69517;52.030;7.106;2023-09-08T11:33:15;100890.94;;;23.82;91.43
80198;BME280;69517;52.030;7.106;2023-09-08T11:35:42;100887.34;;;23.83;91.68
80198;BME280;69517;52.030;7.106;2023-09-08T11:38:09;100887.72;;;23.90;91.39
80198;BME280;69517;52.030;7.106;2023-09-08T11:40:37;100892.38;;;23.86;92.03
80198;BME280;69517;52.030;7.106;2023-09-08T11:43:03;100884.34;;;23.88;92.08
80198;BME280;69517;52.030;7.106;2023-09-08T11:45:30;100887.09;;;23.86;92.25
80198;BME280;69517;52.030;7.106;2023-09-08T11:47:57;100880.03;;;23.87;91.94
80198;BME280;69517;52.030;7.106;2023-09-08T11:50:23;100877.28;;;23.89;91.92
80198;BME280;69517;52.030;7.106;2023-09-08T11:52:50;100879.19;;;23.86;92.17
80198;BME280;69517;52.030;7.106;2023-09-08T11:55:17;100880.88;;;23.88;92.10
80198;BME280;69517;52.030;7.106;2023-09-08T11:57:46;100883.50;;;23.88;91.98
80198;BME280;69517;52.030;7.106;2023-09-08T12:00:13;100890.97;;;23.94;92.17
80198;BME280;69517;52.030;7.106;2023-09-08T12:02:43;100878.22;;;23.88;92.33
80198;BME280;69517;52.030;7.106;2023-09-08T12:05:12;100881.59;;;23.90;92.32
80198;BME280;69517;52.030;7.106;2023-09-08T12:07:39;100871.16;;;23.88;92.50
80198;BME280;69517;52.030;7.106;2023-09-08T12:10:09;100882.56;;;23.89;92.39
80198;BME280;69517;52.030;7.106;2023-09-08T12:12:41;100876.31;;;23.90;92.50
80198;BME280;69517;52.030;7.106;2023-09-08T12:15:09;100872.94;;;23.88;92.24
80198;BME280;69517;52.030;7.106;2023-09-08T12:17:45;100876.31;;;23.90;92.34
80198;BME280;69517;52.030;7.106;2023-09-08T12:20:13;100875.22;;;23.92;92.43
80198;BME280;69517;52.030;7.106;2023-09-08T12:22:46;100868.50;;;23.88;92.47
80198;BME280;69517;52.030;7.106;2023-09-08T12:25:13;100872.09;;;23.87;92.68
80198;BME280;69517;52.030;7.106;2023-09-08T12:27:39;100862.50;;;23.86;92.91
80198;BME280;69517;52.030;7.106;2023-09-08T12:30:06;100867.66;;;23.88;92.15
80198;BME280;69517;52.030;7.106;2023-09-08T12:32:35;100863.13;;;23.90;91.57
80198;BME280;69517;52.030;7.106;2023-09-08T12:35:02;100869.81;;;23.82;91.53
80198;BME280;69517;52.030;7.106;2023-09-08T12:37:29;100863.59;;;23.83;91.77
80198;BME280;69517;52.030;7.106;2023-09-08T12:39:56;100862.00;;;23.81;91.69
80198;BME280;69517;52.030;7.106;2023-09-08T12:42:23;100860.69;;;23.86;91.33
80198;BME280;69517;52.030;7.106;2023-09-08T12:44:50;100858.06;;;23.86;91.37
80198;BME280;69517;52.030;7.106;2023-09-08T12:47:18;100860.69;;;23.86;91.62
80198;BME280;69517;52.030;7.106;2023-09-08T12:49:45;100855.19;;;23.90;92.05
80198;BME280;69517;52.030;7.106;2023-09-08T12:52:11;100854.34;;;23.89;91.52